Atlantic Lily — VREF6 — position and weather

sailwx.info

Track history (hours):
 
Tides and Currents Weather Stations Pressure Air Temp Water Temp Dewpoint Dewpoint Depression Visibility Wind Speed Wind Dir Waves Ship Positions

Atlantic Lily

Last reported at 2017-Nov-19 19:02 UTC. Time now 2017-Dec-16 13:09 UTC.
Position N 29°29' W 094°52'.
Warning: this ship's position is 26 days out of date.

Length 183 m; draft 10.5 m.

Type: Ship. MMSI: 477110700.

Date/timePositionNaut miles runAvg speedWind from/ knotsBaromVisibWave heightAir tempDewpointWater temp
2017-Nov-19 19:02N 29°29' W 094°52'010.0
2017-Nov-19 19:00N 29°29' W 094°52'5 9.8
2017-Nov-19 18:30N 29°33' W 094°55'510.0
2017-Nov-19 18:00N 29°38' W 094°58'5 9.0
2017-Nov-19 17:30N 29°42' W 094°60'4 7.0
2017-Nov-19 17:00N 29°44' W 095°03'3 5.1
2017-Nov-19 16:20N 29°44' W 095°07'2 6.0
2017-Nov-19 15:57N 29°44' W 095°09'4 4.1
2017-Nov-19 15:06N 29°44' W 095°13'  
2017-Nov-17 00:38N 29°44' W 095°13'0 3.6
2017-Nov-17 00:30N 29°44' W 095°14'1 1.3
2017-Nov-17 00:00N 29°43' W 095°13'3 5.3
2017-Nov-16 23:31N 29°45' W 095°10'3 6.3
2017-Nov-16 23:00N 29°44' W 095°07'3 5.4
2017-Nov-16 22:31N 29°45' W 095°04'4 7.7
2017-Nov-16 22:00N 29°42' W 095°01'511.0
2017-Nov-16 21:30N 29°37' W 094°58'612.2
2017-Nov-16 21:01N 29°32' W 094°54'612.9
2017-Nov-16 20:31N 29°27' W 094°50'116 2.3
2017-Nov-14 17:59N 27°33' W 094°23'1013.7
2017-Nov-14 17:17N 27°24' W 094°18'414.4
2017-Nov-14 16:59N 27°21' W 094°15'714.5
2017-Nov-14 16:29N 27°16' W 094°10'714.5
2017-Nov-14 15:59N 27°10' W 094°04'714.5
2017-Nov-14 15:29N 27°05' W 093°59'714.5
2017-Nov-14 14:59N 26°60' W 093°53'714.4
2017-Nov-14 14:29N 26°55' W 093°48'714.4
2017-Nov-14 13:59N 26°49' W 093°42'714.4
2017-Nov-14 13:30N 26°44' W 093°37'714.4
2017-Nov-14 13:00N 26°39' W 093°31'714.4
2017-Nov-14 12:29N 26°33' W 093°26'9 9.4
2017-Nov-14 11:32N 26°27' W 093°19'012.6
2017-Nov-14 11:30N 26°26' W 093°19'1514.3
2017-Nov-14 10:28N 26°16' W 093°08'  
Track history (hours):
 
Tides and Currents Weather Stations Pressure Air Temp Water Temp Dewpoint Dewpoint Depression Visibility Wind Speed Wind Dir Waves Ship Positions

Atlantic Lily

Last reported at 2017-Nov-19 19:02 UTC. Time now 2017-Dec-16 13:09 UTC.
Position N 29°29' W 094°52'.
Warning: this ship's position is 26 days out of date.

Length 183 m; draft 10.5 m.

Type: Ship. MMSI: 477110700.

Date/timePositionNaut miles runAvg speedWind from/ knotsBaromVisibWave heightAir tempDewpointWater temp
2017-Nov-19 19:02N 29°29' W 094°52'010.0
2017-Nov-19 19:00N 29°29' W 094°52'5 9.8
2017-Nov-19 18:30N 29°33' W 094°55'510.0
2017-Nov-19 18:00N 29°38' W 094°58'5 9.0
2017-Nov-19 17:30N 29°42' W 094°60'4 7.0
2017-Nov-19 17:00N 29°44' W 095°03'3 5.1
2017-Nov-19 16:20N 29°44' W 095°07'2 6.0
2017-Nov-19 15:57N 29°44' W 095°09'4 4.1
2017-Nov-19 15:06N 29°44' W 095°13'  
2017-Nov-17 00:38N 29°44' W 095°13'0 3.6
2017-Nov-17 00:30N 29°44' W 095°14'1 1.3
2017-Nov-17 00:00N 29°43' W 095°13'3 5.3
2017-Nov-16 23:31N 29°45' W 095°10'3 6.3
2017-Nov-16 23:00N 29°44' W 095°07'3 5.4
2017-Nov-16 22:31N 29°45' W 095°04'4 7.7
2017-Nov-16 22:00N 29°42' W 095°01'511.0
2017-Nov-16 21:30N 29°37' W 094°58'612.2
2017-Nov-16 21:01N 29°32' W 094°54'612.9
2017-Nov-16 20:31N 29°27' W 094°50'116 2.3
2017-Nov-14 17:59N 27°33' W 094°23'1013.7
2017-Nov-14 17:17N 27°24' W 094°18'414.4
2017-Nov-14 16:59N 27°21' W 094°15'714.5
2017-Nov-14 16:29N 27°16' W 094°10'714.5
2017-Nov-14 15:59N 27°10' W 094°04'714.5
2017-Nov-14 15:29N 27°05' W 093°59'714.5
2017-Nov-14 14:59N 26°60' W 093°53'714.4
2017-Nov-14 14:29N 26°55' W 093°48'714.4
2017-Nov-14 13:59N 26°49' W 093°42'714.4
2017-Nov-14 13:30N 26°44' W 093°37'714.4
2017-Nov-14 13:00N 26°39' W 093°31'714.4
2017-Nov-14 12:29N 26°33' W 093°26'9 9.4
2017-Nov-14 11:32N 26°27' W 093°19'012.6
2017-Nov-14 11:30N 26°26' W 093°19'1514.3
2017-Nov-14 10:28N 26°16' W 093°08'  

Dump ship's entire track history